Terminal Aerodrome Forecast
Issued by NWS Dallas/Fort Worth, TX

Home | Current Version | Previous Version | Text Only | Print | Product List | Glossary On
Versions: 1 2 3 4 5 6 7 8 9 10 11 12 13 14 15 16 17 18 19 20 21 22 23 24 25 26 27 28
000
FTUS44 KFWD 311500 AAB
TAFDFW
TAF AMD
KDFW 311508Z 3115/0118 22008KT P6SM VCSH SCT015 BKN100
     FM311530 34010KT P6SM BKN010
      TEMPO 3116/3117 BKN008 OVC015
     FM311900 34012KT P6SM BKN025
     FM312200 35014KT P6SM BKN035
     FM010200 36009KT P6SM SCT040=

USA.gov is the U.S. government's official web portal to all federal, state and local government web resources and services.